sensor_id;sensor_type;location;lat;lon;timestamp;temperature;humidity
9776;DHT22;4927;52.472;13.108;2023-06-26T00:00:38;18.00;99.90
9776;DHT22;4927;52.472;13.108;2023-06-26T00:01:39;18.00;99.90
9776;DHT22;4927;52.472;13.108;2023-06-26T00:02:42;18.00;99.90
9776;DHT22;4927;52.472;13.108;2023-06-26T00:03:43;18.00;99.90
9776;DHT22;4927;52.472;13.108;2023-06-26T00:04:45;18.00;99.90
9776;DHT22;4927;52.472;13.108;2023-06-26T00:05:46;17.90;99.90
9776;DHT22;4927;52.472;13.108;2023-06-26T00:06:49;17.90;99.90
9776;DHT22;4927;52.472;13.108;2023-06-26T00:07:51;17.90;99.90
9776;DHT22;4927;52.472;13.108;2023-06-26T00:08:53;17.90;99.90
9776;DHT22;4927;52.472;13.108;2023-06-26T00:09:54;17.90;99.90
9776;DHT22;4927;52.472;13.108;2023-06-26T00:10:56;17.90;99.90
9776;DHT22;4927;52.472;13.108;2023-06-26T00:11:58;17.90;99.90
9776;DHT22;4927;52.472;13.108;2023-06-26T00:12:59;17.90;99.90
9776;DHT22;4927;52.472;13.108;2023-06-26T00:14:02;17.90;99.90
9776;DHT22;4927;52.472;13.108;2023-06-26T00:15:04;17.90;99.90
9776;DHT22;4927;52.472;13.108;2023-06-26T00:16:06;17.90;99.90
9776;DHT22;4927;52.472;13.108;2023-06-26T00:17:07;17.90;99.90
9776;DHT22;4927;52.472;13.108;2023-06-26T00:18:10;17.80;99.90
9776;DHT22;4927;52.472;13.108;2023-06-26T00:19:11;17.80;99.90
9776;DHT22;4927;52.472;13.108;2023-06-26T00:20:14;17.80;99.90
9776;DHT22;4927;52.472;13.108;2023-06-26T00:21:16;17.80;99.90
9776;DHT22;4927;52.472;13.108;2023-06-26T00:22:18;17.80;99.90
9776;DHT22;4927;52.472;13.108;2023-06-26T00:23:20;17.80;99.90
9776;DHT22;4927;52.472;13.108;2023-06-26T00:24:22;17.70;99.90
9776;DHT22;4927;52.472;13.108;2023-06-26T00:25:24;17.80;99.90
9776;DHT22;4927;52.472;13.108;2023-06-26T00:26:26;17.70;99.90
9776;DHT22;4927;52.472;13.108;2023-06-26T00:27:28;17.70;99.90
9776;DHT22;4927;52.472;13.108;2023-06-26T00:28:29;17.70;99.90
9776;DHT22;4927;52.472;13.108;2023-06-26T00:29:31;17.70;99.90
9776;DHT22;4927;52.472;13.108;2023-06-26T00:30:33;17.70;99.90
9776;DHT22;4927;52.472;13.108;2023-06-26T00:31:35;17.70;99.90
9776;DHT22;4927;52.472;13.108;2023-06-26T00:32:37;17.70;99.90
9776;DHT22;4927;52.472;13.108;2023-06-26T00:33:39;17.60;99.90
9776;DHT22;4927;52.472;13.108;2023-06-26T00:34:40;17.60;99.90
9776;DHT22;4927;52.472;13.108;2023-06-26T00:35:42;17.60;99.90
9776;DHT22;4927;52.472;13.108;2023-06-26T00:36:43;17.60;99.90
9776;DHT22;4927;52.472;13.108;2023-06-26T00:37:46;17.60;99.90
9776;DHT22;4927;52.472;13.108;2023-06-26T00:38:49;17.60;99.90
9776;DHT22;4927;52.472;13.108;2023-06-26T00:39:51;17.60;99.90
9776;DHT22;4927;52.472;13.108;2023-06-26T00:40:53;17.60;99.90
9776;DHT22;4927;52.472;13.108;2023-06-26T00:41:55;17.60;99.90
9776;DHT22;4927;52.472;13.108;2023-06-26T00:42:56;17.60;99.90
9776;DHT22;4927;52.472;13.108;2023-06-26T00:43:59;17.60;99.90
9776;DHT22;4927;52.472;13.108;2023-06-26T00:45:00;17.60;99.90
9776;DHT22;4927;52.472;13.108;2023-06-26T00:46:02;17.50;99.90
9776;DHT22;4927;52.472;13.108;2023-06-26T00:47:05;17.60;99.90
9776;DHT22;4927;52.472;13.108;2023-06-26T00:48:07;17.50;99.90
9776;DHT22;4927;52.472;13.108;2023-06-26T00:49:09;17.50;99.90
9776;DHT22;4927;52.472;13.108;2023-06-26T00:50:11;17.50;99.90
9776;DHT22;4927;52.472;13.108;2023-06-26T00:51:13;17.50;99.90
9776;DHT22;4927;52.472;13.108;2023-06-26T00:52:14;17.50;99.90
9776;DHT22;4927;52.472;13.108;2023-06-26T00:53:17;17.50;99.90
9776;DHT22;4927;52.472;13.108;2023-06-26T00:54:19;17.50;99.90
9776;DHT22;4927;52.472;13.108;2023-06-26T00:55:21;17.50;99.90
9776;DHT22;4927;52.472;13.108;2023-06-26T00:56:23;17.50;99.90
9776;DHT22;4927;52.472;13.108;2023-06-26T00:57:25;17.50;99.90
9776;DHT22;4927;52.472;13.108;2023-06-26T00:58:26;17.50;99.90
9776;DHT22;4927;52.472;13.108;2023-06-26T00:59:28;17.40;99.90
9776;DHT22;4927;52.472;13.108;2023-06-26T01:00:30;17.40;99.90
9776;DHT22;4927;52.472;13.108;2023-06-26T01:01:31;17.40;99.90
9776;DHT22;4927;52.472;13.108;2023-06-26T01:02:33;17.40;99.90
9776;DHT22;4927;52.472;13.108;2023-06-26T01:03:35;17.40;99.90
9776;DHT22;4927;52.472;13.108;2023-06-26T01:04:38;17.40;99.90
9776;DHT22;4927;52.472;13.108;2023-06-26T01:05:39;17.40;99.90
9776;DHT22;4927;52.472;13.108;2023-06-26T01:06:43;17.40;99.90
9776;DHT22;4927;52.472;13.108;2023-06-26T01:07:44;17.30;99.90
9776;DHT22;4927;52.472;13.108;2023-06-26T01:08:46;17.30;99.90
9776;DHT22;4927;52.472;13.108;2023-06-26T01:09:48;17.30;99.90
9776;DHT22;4927;52.472;13.108;2023-06-26T01:10:49;17.30;99.90
9776;DHT22;4927;52.472;13.108;2023-06-26T01:11:51;17.30;99.90
9776;DHT22;4927;52.472;13.108;2023-06-26T01:12:53;17.30;99.90
9776;DHT22;4927;52.472;13.108;2023-06-26T01:13:54;17.30;99.90
9776;DHT22;4927;52.472;13.108;2023-06-26T01:14:56;17.30;99.90
9776;DHT22;4927;52.472;13.108;2023-06-26T01:15:58;17.30;99.90
9776;DHT22;4927;52.472;13.108;2023-06-26T01:17:00;17.30;99.90
9776;DHT22;4927;52.472;13.108;2023-06-26T01:18:02;17.30;99.90
9776;DHT22;4927;52.472;13.108;2023-06-26T01:19:04;17.30;99.90
9776;DHT22;4927;52.472;13.108;2023-06-26T01:20:05;17.20;99.90
9776;DHT22;4927;52.472;13.108;2023-06-26T01:21:09;17.20;99.90
9776;DHT22;4927;52.472;13.108;2023-06-26T01:22:32;17.20;99.90
9776;DHT22;4927;52.472;13.108;2023-06-26T01:23:48;17.20;99.90
9776;DHT22;4927;52.472;13.108;2023-06-26T01:24:56;17.20;99.90
9776;DHT22;4927;52.472;13.108;2023-06-26T01:26:15;17.30;99.90
9776;DHT22;4927;52.472;13.108;2023-06-26T01:27:18;17.20;99.90
9776;DHT22;4927;52.472;13.108;2023-06-26T01:28:19;17.20;99.90
9776;DHT22;4927;52.472;13.108;2023-06-26T01:29:20;17.20;99.90
9776;DHT22;4927;52.472;13.108;2023-06-26T01:30:22;17.20;99.90
9776;DHT22;4927;52.472;13.108;2023-06-26T01:31:25;17.20;99.90
9776;DHT22;4927;52.472;13.108;2023-06-26T01:32:26;17.20;99.90
9776;DHT22;4927;52.472;13.108;2023-06-26T01:33:28;17.20;99.90
9776;DHT22;4927;52.472;13.108;2023-06-26T01:34:30;17.20;99.90
9776;DHT22;4927;52.472;13.108;2023-06-26T01:35:32;17.20;99.90
9776;DHT22;4927;52.472;13.108;2023-06-26T01:36:33;17.20;99.90
9776;DHT22;4927;52.472;13.108;2023-06-26T01:37:35;17.20;99.90
9776;DHT22;4927;52.472;13.108;2023-06-26T01:38:37;17.20;99.90
9776;DHT22;4927;52.472;13.108;2023-06-26T01:39:39;17.10;99.90
9776;DHT22;4927;52.472;13.108;2023-06-26T01:40:41;17.10;99.90
9776;DHT22;4927;52.472;13.108;2023-06-26T01:41:44;17.10;99.90
9776;DHT22;4927;52.472;13.108;2023-06-26T01:42:45;17.10;99.90
9776;DHT22;4927;52.472;13.108;2023-06-26T01:43:58;17.10;99.90
9776;DHT22;4927;52.472;13.108;2023-06-26T01:45:07;17.10;99.90
9776;DHT22;4927;52.472;13.108;2023-06-26T01:46:11;17.10;99.90
9776;DHT22;4927;52.472;13.108;2023-06-26T01:47:12;17.10;99.90
9776;DHT22;4927;52.472;13.108;2023-06-26T01:48:13;17.10;99.90
9776;DHT22;4927;52.472;13.108;2023-06-26T01:49:25;17.10;99.90
9776;DHT22;4927;52.472;13.108;2023-06-26T01:50:24;17.10;99.90
9776;DHT22;4927;52.472;13.108;2023-06-26T01:51:28;17.10;99.90
9776;DHT22;4927;52.472;13.108;2023-06-26T01:52:41;17.00;99.90
9776;DHT22;4927;52.472;13.108;2023-06-26T01:53:44;17.00;99.90
9776;DHT22;4927;52.472;13.108;2023-06-26T01:55:55;17.00;99.90
9776;DHT22;4927;52.472;13.108;2023-06-26T01:56:55;17.00;99.90
9776;DHT22;4927;52.472;13.108;2023-06-26T01:57:57;17.00;99.90
9776;DHT22;4927;52.472;13.108;2023-06-26T01:58:59;17.00;99.90
9776;DHT22;4927;52.472;13.108;2023-06-26T02:00:00;17.00;99.90
9776;DHT22;4927;52.472;13.108;2023-06-26T02:01:03;17.00;99.90
9776;DHT22;4927;52.472;13.108;2023-06-26T02:02:06;17.00;99.90
9776;DHT22;4927;52.472;13.108;2023-06-26T02:03:08;17.00;99.90
9776;DHT22;4927;52.472;13.108;2023-06-26T02:04:09;17.00;99.90
9776;DHT22;4927;52.472;13.108;2023-06-26T02:05:11;17.00;99.90
9776;DHT22;4927;52.472;13.108;2023-06-26T02:06:13;17.00;99.90
9776;DHT22;4927;52.472;13.108;2023-06-26T02:07:15;16.90;99.90
9776;DHT22;4927;52.472;13.108;2023-06-26T02:08:16;16.90;99.90
9776;DHT22;4927;52.472;13.108;2023-06-26T02:09:18;16.90;99.90
9776;DHT22;4927;52.472;13.108;2023-06-26T02:10:20;16.90;99.90
9776;DHT22;4927;52.472;13.108;2023-06-26T02:11:23;16.90;99.90
9776;DHT22;4927;52.472;13.108;2023-06-26T02:12:24;16.90;99.90
9776;DHT22;4927;52.472;13.108;2023-06-26T02:13:27;16.90;99.90
9776;DHT22;4927;52.472;13.108;2023-06-26T02:14:28;16.90;99.90
9776;DHT22;4927;52.472;13.108;2023-06-26T02:15:37;16.90;99.90
9776;DHT22;4927;52.472;13.108;2023-06-26T02:16:40;16.80;99.90
9776;DHT22;4927;52.472;13.108;2023-06-26T02:17:42;16.80;99.90
9776;DHT22;4927;52.472;13.108;2023-06-26T02:18:44;16.80;99.90
9776;DHT22;4927;52.472;13.108;2023-06-26T02:19:46;16.80;99.90
9776;DHT22;4927;52.472;13.108;2023-06-26T02:20:49;16.80;99.90
9776;DHT22;4927;52.472;13.108;2023-06-26T02:21:51;16.80;99.90
9776;DHT22;4927;52.472;13.108;2023-06-26T02:22:53;16.80;99.90
9776;DHT22;4927;52.472;13.108;2023-06-26T02:23:54;16.80;99.90
9776;DHT22;4927;52.472;13.108;2023-06-26T02:24:56;16.80;99.90
9776;DHT22;4927;52.472;13.108;2023-06-26T02:25:57;16.70;99.90
9776;DHT22;4927;52.472;13.108;2023-06-26T02:26:59;16.70;99.90
9776;DHT22;4927;52.472;13.108;2023-06-26T02:28:01;16.70;99.90
9776;DHT22;4927;52.472;13.108;2023-06-26T02:29:03;16.70;99.90
9776;DHT22;4927;52.472;13.108;2023-06-26T02:30:06;16.70;99.90
9776;DHT22;4927;52.472;13.108;2023-06-26T02:31:08;16.70;99.90
9776;DHT22;4927;52.472;13.108;2023-06-26T02:32:17;16.80;99.90
9776;DHT22;4927;52.472;13.108;2023-06-26T02:33:19;16.70;99.90
9776;DHT22;4927;52.472;13.108;2023-06-26T02:34:21;16.70;99.90
9776;DHT22;4927;52.472;13.108;2023-06-26T02:35:23;16.70;99.90
9776;DHT22;4927;52.472;13.108;2023-06-26T02:36:24;16.70;99.90
9776;DHT22;4927;52.472;13.108;2023-06-26T02:37:26;16.70;99.90
9776;DHT22;4927;52.472;13.108;2023-06-26T02:38:28;16.70;99.90
9776;DHT22;4927;52.472;13.108;2023-06-26T02:39:29;16.70;99.90
9776;DHT22;4927;52.472;13.108;2023-06-26T02:40:31;16.70;99.90
9776;DHT22;4927;52.472;13.108;2023-06-26T02:41:33;16.70;99.90
9776;DHT22;4927;52.472;13.108;2023-06-26T02:42:35;16.70;99.90
9776;DHT22;4927;52.472;13.108;2023-06-26T02:43:37;16.70;99.90
9776;DHT22;4927;52.472;13.108;2023-06-26T02:44:38;16.70;99.90
9776;DHT22;4927;52.472;13.108;2023-06-26T02:45:40;16.70;99.90
9776;DHT22;4927;52.472;13.108;2023-06-26T02:46:42;16.70;99.90
9776;DHT22;4927;52.472;13.108;2023-06-26T02:47:43;16.70;99.90
9776;DHT22;4927;52.472;13.108;2023-06-26T02:48:45;16.70;99.90
9776;DHT22;4927;52.472;13.108;2023-06-26T02:49:46;16.70;99.90
9776;DHT22;4927;52.472;13.108;2023-06-26T02:50:48;16.70;99.90
9776;DHT22;4927;52.472;13.108;2023-06-26T02:51:50;16.80;99.90
9776;DHT22;4927;52.472;13.108;2023-06-26T02:52:53;16.70;99.90
9776;DHT22;4927;52.472;13.108;2023-06-26T02:53:54;16.70;99.90
9776;DHT22;4927;52.472;13.108;2023-06-26T02:54:56;16.70;99.90
9776;DHT22;4927;52.472;13.108;2023-06-26T02:55:58;16.80;99.90
9776;DHT22;4927;52.472;13.108;2023-06-26T02:56:59;16.80;99.90
9776;DHT22;4927;52.472;13.108;2023-06-26T02:58:01;16.80;99.90
9776;DHT22;4927;52.472;13.108;2023-06-26T02:59:03;16.80;99.90
9776;DHT22;4927;52.472;13.108;2023-06-26T03:00:06;16.90;99.90
9776;DHT22;4927;52.472;13.108;2023-06-26T03:01:08;16.90;99.90
9776;DHT22;4927;52.472;13.108;2023-06-26T03:02:10;16.90;99.90
9776;DHT22;4927;52.472;13.108;2023-06-26T03:03:12;16.90;99.90
9776;DHT22;4927;52.472;13.108;2023-06-26T03:04:13;16.90;99.90
9776;DHT22;4927;52.472;13.108;2023-06-26T03:05:15;16.90;99.90
9776;DHT22;4927;52.472;13.108;2023-06-26T03:06:17;16.90;99.90
9776;DHT22;4927;52.472;13.108;2023-06-26T03:07:26;17.00;99.90
9776;DHT22;4927;52.472;13.108;2023-06-26T03:08:27;16.90;99.90
9776;DHT22;4927;52.472;13.108;2023-06-26T03:09:30;17.00;99.90
9776;DHT22;4927;52.472;13.108;2023-06-26T03:10:31;17.00;99.90
9776;DHT22;4927;52.472;13.108;2023-06-26T03:11:33;17.00;99.90
9776;DHT22;4927;52.472;13.108;2023-06-26T03:12:35;17.00;99.90
9776;DHT22;4927;52.472;13.108;2023-06-26T03:13:36;17.00;99.90
9776;DHT22;4927;52.472;13.108;2023-06-26T03:14:38;17.00;99.90
9776;DHT22;4927;52.472;13.108;2023-06-26T03:15:46;17.00;99.90
9776;DHT22;4927;52.472;13.108;2023-06-26T03:16:48;17.10;99.90
9776;DHT22;4927;52.472;13.108;2023-06-26T03:17:50;17.10;99.90
9776;DHT22;4927;52.472;13.108;2023-06-26T03:18:51;17.10;99.90
9776;DHT22;4927;52.472;13.108;2023-06-26T03:19:53;17.10;99.90
9776;DHT22;4927;52.472;13.108;2023-06-26T03:20:55;17.10;99.90
9776;DHT22;4927;52.472;13.108;2023-06-26T03:21:56;17.10;99.90
9776;DHT22;4927;52.472;13.108;2023-06-26T03:22:58;17.10;99.90
9776;DHT22;4927;52.472;13.108;2023-06-26T03:23:59;17.10;99.90
9776;DHT22;4927;52.472;13.108;2023-06-26T03:25:01;17.10;99.90
9776;DHT22;4927;52.472;13.108;2023-06-26T03:26:04;17.10;99.90
9776;DHT22;4927;52.472;13.108;2023-06-26T03:27:06;17.10;99.90
9776;DHT22;4927;52.472;13.108;2023-06-26T03:28:08;17.10;99.90
9776;DHT22;4927;52.472;13.108;2023-06-26T03:29:09;17.10;99.90
9776;DHT22;4927;52.472;13.108;2023-06-26T03:30:12;17.10;99.90
9776;DHT22;4927;52.472;13.108;2023-06-26T03:31:14;17.10;99.90
9776;DHT22;4927;52.472;13.108;2023-06-26T03:32:15;17.10;99.90
9776;DHT22;4927;52.472;13.108;2023-06-26T03:33:17;17.10;99.90
9776;DHT22;4927;52.472;13.108;2023-06-26T03:34:19;17.10;99.90
9776;DHT22;4927;52.472;13.108;2023-06-26T03:35:21;17.10;99.90
9776;DHT22;4927;52.472;13.108;2023-06-26T03:36:30;17.10;99.90
9776;DHT22;4927;52.472;13.108;2023-06-26T03:37:31;17.10;99.90
9776;DHT22;4927;52.472;13.108;2023-06-26T03:38:33;17.10;99.90
9776;DHT22;4927;52.472;13.108;2023-06-26T03:39:35;17.10;99.90
9776;DHT22;4927;52.472;13.108;2023-06-26T03:40:37;17.10;99.90
9776;DHT22;4927;52.472;13.108;2023-06-26T03:41:39;17.10;99.90
9776;DHT22;4927;52.472;13.108;2023-06-26T03:42:41;17.10;99.90
9776;DHT22;4927;52.472;13.108;2023-06-26T03:43:43;17.10;99.90
9776;DHT22;4927;52.472;13.108;2023-06-26T03:44:45;17.10;99.90
9776;DHT22;4927;52.472;13.108;2023-06-26T03:45:47;17.10;99.90
9776;DHT22;4927;52.472;13.108;2023-06-26T03:46:50;17.10;99.90
9776;DHT22;4927;52.472;13.108;2023-06-26T03:47:51;17.10;99.90
9776;DHT22;4927;52.472;13.108;2023-06-26T03:48:53;17.10;99.90
9776;DHT22;4927;52.472;13.108;2023-06-26T03:49:55;17.20;99.90
9776;DHT22;4927;52.472;13.108;2023-06-26T03:50:58;17.20;99.90
9776;DHT22;4927;52.472;13.108;2023-06-26T03:51:59;17.20;99.90
9776;DHT22;4927;52.472;13.108;2023-06-26T03:53:01;17.20;99.90
9776;DHT22;4927;52.472;13.108;2023-06-26T03:54:03;17.20;99.90
9776;DHT22;4927;52.472;13.108;2023-06-26T03:55:05;17.20;99.90
9776;DHT22;4927;52.472;13.108;2023-06-26T03:56:06;17.20;99.90
9776;DHT22;4927;52.472;13.108;2023-06-26T03:57:08;17.20;99.90
9776;DHT22;4927;52.472;13.108;2023-06-26T03:58:10;17.20;99.90
9776;DHT22;4927;52.472;13.108;2023-06-26T03:59:11;17.20;99.90
9776;DHT22;4927;52.472;13.108;2023-06-26T04:00:14;17.20;99.90
9776;DHT22;4927;52.472;13.108;2023-06-26T04:01:16;17.30;99.90
9776;DHT22;4927;52.472;13.108;2023-06-26T04:02:18;17.30;99.90
9776;DHT22;4927;52.472;13.108;2023-06-26T04:03:20;17.30;99.90
9776;DHT22;4927;52.472;13.108;2023-06-26T04:04:21;17.30;99.90
9776;DHT22;4927;52.472;13.108;2023-06-26T04:05:23;17.30;99.90
9776;DHT22;4927;52.472;13.108;2023-06-26T04:06:25;17.30;99.90
9776;DHT22;4927;52.472;13.108;2023-06-26T04:07:27;17.30;99.90
9776;DHT22;4927;52.472;13.108;2023-06-26T04:08:28;17.30;99.90
9776;DHT22;4927;52.472;13.108;2023-06-26T04:09:30;17.30;99.90
9776;DHT22;4927;52.472;13.108;2023-06-26T04:10:32;17.30;99.90
9776;DHT22;4927;52.472;13.108;2023-06-26T04:11:34;17.30;99.90
9776;DHT22;4927;52.472;13.108;2023-06-26T04:12:36;17.30;99.90
9776;DHT22;4927;52.472;13.108;2023-06-26T04:13:38;17.40;99.90
9776;DHT22;4927;52.472;13.108;2023-06-26T04:14:40;17.40;99.90
9776;DHT22;4927;52.472;13.108;2023-06-26T04:15:42;17.40;99.90
9776;DHT22;4927;52.472;13.108;2023-06-26T04:16:43;17.40;99.90
9776;DHT22;4927;52.472;13.108;2023-06-26T04:17:46;17.50;99.90
9776;DHT22;4927;52.472;13.108;2023-06-26T04:18:47;17.40;99.90
9776;DHT22;4927;52.472;13.108;2023-06-26T04:19:49;17.50;99.90
9776;DHT22;4927;52.472;13.108;2023-06-26T04:21:06;17.50;99.90
9776;DHT22;4927;52.472;13.108;2023-06-26T04:22:13;17.60;99.90
9776;DHT22;4927;52.472;13.108;2023-06-26T04:23:22;17.60;99.90
9776;DHT22;4927;52.472;13.108;2023-06-26T04:24:23;17.60;99.90
9776;DHT22;4927;52.472;13.108;2023-06-26T04:25:25;17.70;99.90
9776;DHT22;4927;52.472;13.108;2023-06-26T04:26:27;17.70;99.90
9776;DHT22;4927;52.472;13.108;2023-06-26T04:27:28;17.80;99.90
9776;DHT22;4927;52.472;13.108;2023-06-26T04:28:31;17.80;99.90
9776;DHT22;4927;52.472;13.108;2023-06-26T04:29:32;17.80;99.90
9776;DHT22;4927;52.472;13.108;2023-06-26T04:32:02;18.00;99.90
9776;DHT22;4927;52.472;13.108;2023-06-26T04:33:05;18.10;99.90
9776;DHT22;4927;52.472;13.108;2023-06-26T04:34:07;18.10;99.90
9776;DHT22;4927;52.472;13.108;2023-06-26T04:35:08;18.20;99.90
9776;DHT22;4927;52.472;13.108;2023-06-26T04:36:10;18.30;99.90
9776;DHT22;4927;52.472;13.108;2023-06-26T04:37:12;18.40;99.90
9776;DHT22;4927;52.472;13.108;2023-06-26T04:38:14;18.40;99.90
9776;DHT22;4927;52.472;13.108;2023-06-26T04:39:15;18.50;99.90
9776;DHT22;4927;52.472;13.108;2023-06-26T04:40:17;18.50;99.90
9776;DHT22;4927;52.472;13.108;2023-06-26T04:41:18;18.60;99.90
9776;DHT22;4927;52.472;13.108;2023-06-26T04:42:20;18.70;99.90
9776;DHT22;4927;52.472;13.108;2023-06-26T04:43:22;18.70;99.90
9776;DHT22;4927;52.472;13.108;2023-06-26T04:44:24;18.80;99.90
9776;DHT22;4927;52.472;13.108;2023-06-26T04:45:26;18.90;99.90
9776;DHT22;4927;52.472;13.108;2023-06-26T04:46:28;18.90;99.90
9776;DHT22;4927;52.472;13.108;2023-06-26T04:47:29;18.90;99.90
9776;DHT22;4927;52.472;13.108;2023-06-26T04:48:31;18.90;99.90
9776;DHT22;4927;52.472;13.108;2023-06-26T04:49:33;18.90;99.90
9776;DHT22;4927;52.472;13.108;2023-06-26T04:50:34;19.00;99.90
9776;DHT22;4927;52.472;13.108;2023-06-26T04:51:36;18.90;99.90
9776;DHT22;4927;52.472;13.108;2023-06-26T04:52:39;19.00;99.90
9776;DHT22;4927;52.472;13.108;2023-06-26T04:53:40;19.00;99.90
9776;DHT22;4927;52.472;13.108;2023-06-26T04:54:42;19.00;99.90
9776;DHT22;4927;52.472;13.108;2023-06-26T04:55:44;19.00;99.90
9776;DHT22;4927;52.472;13.108;2023-06-26T04:56:46;19.00;99.90
9776;DHT22;4927;52.472;13.108;2023-06-26T04:57:47;19.00;99.90
9776;DHT22;4927;52.472;13.108;2023-06-26T04:58:49;19.00;99.90
9776;DHT22;4927;52.472;13.108;2023-06-26T04:59:51;19.00;99.90
9776;DHT22;4927;52.472;13.108;2023-06-26T05:00:54;18.90;99.90
9776;DHT22;4927;52.472;13.108;2023-06-26T05:01:55;19.00;99.90
9776;DHT22;4927;52.472;13.108;2023-06-26T05:02:57;18.90;99.90
9776;DHT22;4927;52.472;13.108;2023-06-26T05:04:01;18.90;99.90
9776;DHT22;4927;52.472;13.108;2023-06-26T05:05:02;18.90;99.90
9776;DHT22;4927;52.472;13.108;2023-06-26T05:06:05;18.90;99.90
9776;DHT22;4927;52.472;13.108;2023-06-26T05:07:06;18.90;99.90
9776;DHT22;4927;52.472;13.108;2023-06-26T05:08:14;18.90;99.90
9776;DHT22;4927;52.472;13.108;2023-06-26T05:09:30;18.90;99.90
9776;DHT22;4927;52.472;13.108;2023-06-26T05:10:31;18.90;99.90
9776;DHT22;4927;52.472;13.108;2023-06-26T05:11:34;18.90;99.90
9776;DHT22;4927;52.472;13.108;2023-06-26T05:12:36;18.90;99.90
9776;DHT22;4927;52.472;13.108;2023-06-26T05:13:38;18.90;99.90
9776;DHT22;4927;52.472;13.108;2023-06-26T05:14:39;18.90;99.90
9776;DHT22;4927;52.472;13.108;2023-06-26T05:15:42;19.00;99.90
9776;DHT22;4927;52.472;13.108;2023-06-26T05:16:44;18.90;99.90
9776;DHT22;4927;52.472;13.108;2023-06-26T05:17:46;18.90;99.90
9776;DHT22;4927;52.472;13.108;2023-06-26T05:18:48;18.90;99.90
9776;DHT22;4927;52.472;13.108;2023-06-26T05:19:50;18.90;99.90
9776;DHT22;4927;52.472;13.108;2023-06-26T05:20:53;19.00;99.90
9776;DHT22;4927;52.472;13.108;2023-06-26T05:21:55;19.00;99.90
9776;DHT22;4927;52.472;13.108;2023-06-26T05:22:57;19.00;99.90
9776;DHT22;4927;52.472;13.108;2023-06-26T05:23:58;19.00;99.90
9776;DHT22;4927;52.472;13.108;2023-06-26T05:25:01;19.10;99.90
9776;DHT22;4927;52.472;13.108;2023-06-26T05:26:03;19.10;99.90
9776;DHT22;4927;52.472;13.108;2023-06-26T05:27:06;19.20;99.90
9776;DHT22;4927;52.472;13.108;2023-06-26T05:28:09;19.20;99.90
9776;DHT22;4927;52.472;13.108;2023-06-26T05:29:12;19.30;99.90
9776;DHT22;4927;52.472;13.108;2023-06-26T05:30:16;19.20;99.90
9776;DHT22;4927;52.472;13.108;2023-06-26T05:31:18;19.30;99.90
9776;DHT22;4927;52.472;13.108;2023-06-26T05:32:21;19.30;99.90
9776;DHT22;4927;52.472;13.108;2023-06-26T05:33:24;19.40;99.90
9776;DHT22;4927;52.472;13.108;2023-06-26T05:34:26;19.50;99.90
9776;DHT22;4927;52.472;13.108;2023-06-26T05:35:28;19.40;99.90
9776;DHT22;4927;52.472;13.108;2023-06-26T05:36:30;19.50;99.90
9776;DHT22;4927;52.472;13.108;2023-06-26T05:37:32;19.50;99.90
9776;DHT22;4927;52.472;13.108;2023-06-26T05:38:35;19.60;99.90
9776;DHT22;4927;52.472;13.108;2023-06-26T05:39:37;19.60;99.90
9776;DHT22;4927;52.472;13.108;2023-06-26T05:40:39;19.60;99.90
9776;DHT22;4927;52.472;13.108;2023-06-26T05:41:44;19.70;99.90
9776;DHT22;4927;52.472;13.108;2023-06-26T05:42:46;19.70;99.90
9776;DHT22;4927;52.472;13.108;2023-06-26T05:43:48;19.70;99.90
9776;DHT22;4927;52.472;13.108;2023-06-26T05:44:50;19.70;99.90
9776;DHT22;4927;52.472;13.108;2023-06-26T05:45:51;19.80;99.90
9776;DHT22;4927;52.472;13.108;2023-06-26T05:46:53;19.80;99.90
9776;DHT22;4927;52.472;13.108;2023-06-26T05:47:55;19.80;99.90
9776;DHT22;4927;52.472;13.108;2023-06-26T05:48:57;19.90;99.90
9776;DHT22;4927;52.472;13.108;2023-06-26T05:49:59;19.90;99.90
9776;DHT22;4927;52.472;13.108;2023-06-26T05:51:01;19.90;99.90
9776;DHT22;4927;52.472;13.108;2023-06-26T05:52:05;20.00;99.90
9776;DHT22;4927;52.472;13.108;2023-06-26T05:53:08;20.10;99.90
9776;DHT22;4927;52.472;13.108;2023-06-26T05:54:11;20.00;99.90
9776;DHT22;4927;52.472;13.108;2023-06-26T05:55:14;20.10;99.90
9776;DHT22;4927;52.472;13.108;2023-06-26T05:56:17;20.10;99.90
9776;DHT22;4927;52.472;13.108;2023-06-26T05:57:19;20.10;99.90
9776;DHT22;4927;52.472;13.108;2023-06-26T05:58:21;20.10;99.90
9776;DHT22;4927;52.472;13.108;2023-06-26T05:59:23;20.10;99.90
9776;DHT22;4927;52.472;13.108;2023-06-26T06:00:26;20.10;99.90
9776;DHT22;4927;52.472;13.108;2023-06-26T06:01:28;20.20;99.90
9776;DHT22;4927;52.472;13.108;2023-06-26T06:02:30;20.20;99.90
9776;DHT22;4927;52.472;13.108;2023-06-26T06:03:33;20.30;99.90
9776;DHT22;4927;52.472;13.108;2023-06-26T06:04:34;20.20;99.90
9776;DHT22;4927;52.472;13.108;2023-06-26T06:05:36;20.30;99.90
9776;DHT22;4927;52.472;13.108;2023-06-26T06:06:38;20.30;99.90
9776;DHT22;4927;52.472;13.108;2023-06-26T06:07:39;20.30;99.90
9776;DHT22;4927;52.472;13.108;2023-06-26T06:08:42;20.40;99.90
9776;DHT22;4927;52.472;13.108;2023-06-26T06:09:43;20.40;99.90
9776;DHT22;4927;52.472;13.108;2023-06-26T06:10:45;20.40;99.90
9776;DHT22;4927;52.472;13.108;2023-06-26T06:11:47;20.50;99.90
9776;DHT22;4927;52.472;13.108;2023-06-26T06:12:48;20.50;99.90
9776;DHT22;4927;52.472;13.108;2023-06-26T06:13:50;20.50;99.90
9776;DHT22;4927;52.472;13.108;2023-06-26T06:14:53;20.60;99.90
9776;DHT22;4927;52.472;13.108;2023-06-26T06:15:54;20.50;99.90
9776;DHT22;4927;52.472;13.108;2023-06-26T06:16:56;20.60;99.90
9776;DHT22;4927;52.472;13.108;2023-06-26T06:17:58;20.60;99.90
9776;DHT22;4927;52.472;13.108;2023-06-26T06:19:00;20.70;99.90
9776;DHT22;4927;52.472;13.108;2023-06-26T06:20:02;20.60;99.90
9776;DHT22;4927;52.472;13.108;2023-06-26T06:21:05;20.70;99.90
9776;DHT22;4927;52.472;13.108;2023-06-26T06:22:07;20.70;99.90
9776;DHT22;4927;52.472;13.108;2023-06-26T06:23:10;20.70;99.90
9776;DHT22;4927;52.472;13.108;2023-06-26T06:24:11;20.70;99.90
9776;DHT22;4927;52.472;13.108;2023-06-26T06:25:14;20.80;99.90
9776;DHT22;4927;52.472;13.108;2023-06-26T06:26:16;20.80;99.90
9776;DHT22;4927;52.472;13.108;2023-06-26T06:27:19;20.80;99.90
9776;DHT22;4927;52.472;13.108;2023-06-26T06:28:21;20.90;99.90
9776;DHT22;4927;52.472;13.108;2023-06-26T06:29:23;20.90;99.90
9776;DHT22;4927;52.472;13.108;2023-06-26T06:30:25;20.90;99.90
9776;DHT22;4927;52.472;13.108;2023-06-26T06:31:27;20.90;99.90
9776;DHT22;4927;52.472;13.108;2023-06-26T06:32:30;21.00;99.90
9776;DHT22;4927;52.472;13.108;2023-06-26T06:33:31;20.90;99.90
9776;DHT22;4927;52.472;13.108;2023-06-26T06:34:33;21.00;99.90
9776;DHT22;4927;52.472;13.108;2023-06-26T06:35:35;21.00;99.90
9776;DHT22;4927;52.472;13.108;2023-06-26T06:36:38;21.10;99.90
9776;DHT22;4927;52.472;13.108;2023-06-26T06:37:39;21.00;99.90
9776;DHT22;4927;52.472;13.108;2023-06-26T06:38:43;21.10;99.90
9776;DHT22;4927;52.472;13.108;2023-06-26T06:39:45;21.10;99.90
9776;DHT22;4927;52.472;13.108;2023-06-26T06:40:47;21.20;99.90
9776;DHT22;4927;52.472;13.108;2023-06-26T06:41:48;21.20;99.90
9776;DHT22;4927;52.472;13.108;2023-06-26T06:42:51;21.30;99.90